Time;durP1;ratioP1;P1;durP2;ratioP2;P2;SDS_P1;SDS_P2;PMS_P1;PMS_P2;Temp;Humidity;BMP_temperature;BMP_pressure;BME280_temperature;BME280_humidity;BME280_pressure;Samples;Min_cycle;Max_cycle;Signal;HPM_P1;HPM_P2
2023/05/26 00:00:58;;;;;;;19.65;6.05;;;17.70;85.20;;;;;;5055149;28;20061;-68
2023/05/26 00:03:27;;;;;;;22.50;6.00;;;17.70;85.40;;;;;;5055013;28;20041;-68
2023/05/26 00:05:54;;;;;;;16.30;5.07;;;17.70;85.10;;;;;;5054900;28;20021;-68
2023/05/26 00:08:21;;;;;;;13.68;5.43;;;17.70;85.30;;;;;;5054804;28;20103;-68
2023/05/26 00:10:46;;;;;;;16.85;5.60;;;17.70;85.70;;;;;;5054883;28;20044;-69
2023/05/26 00:13:12;;;;;;;18.77;5.68;;;17.70;85.60;;;;;;5054730;28;20504;-68
2023/05/26 00:15:38;;;;;;;21.50;6.38;;;17.60;85.60;;;;;;5054902;28;20431;-68
2023/05/26 00:18:04;;;;;;;19.95;5.18;;;17.70;85.40;;;;;;5054945;28;20536;-70
2023/05/26 00:20:31;;;;;;;15.40;5.03;;;17.60;85.60;;;;;;5054608;28;20036;-68
2023/05/26 00:22:56;;;;;;;20.88;6.57;;;17.70;85.30;;;;;;5054506;28;20021;-68
2023/05/26 00:25:22;;;;;;;22.15;6.05;;;17.60;85.70;;;;;;5054428;28;20029;-68
2023/05/26 00:27:48;;;;;;;15.75;5.38;;;17.60;85.70;;;;;;5054590;28;20029;-68
2023/05/26 00:30:14;;;;;;;18.98;5.45;;;17.60;85.50;;;;;;5051074;28;20021;-69
2023/05/26 00:32:39;;;;;;;17.63;5.30;;;17.50;85.50;;;;;;5034725;28;20121;-68
2023/05/26 00:35:05;;;;;;;21.52;5.65;;;17.50;85.50;;;;;;5034135;28;20025;-68
2023/05/26 00:37:32;;;;;;;22.88;5.53;;;17.50;86.00;;;;;;5034245;28;20033;-68
2023/05/26 00:39:58;;;;;;;18.70;6.03;;;17.50;86.00;;;;;;5034072;28;20060;-68
2023/05/26 00:42:23;;;;;;;18.95;5.78;;;17.40;85.90;;;;;;5034547;28;20049;-68
2023/05/26 00:44:51;;;;;;;18.77;5.53;;;17.40;85.70;;;;;;5034259;28;20097;-68
2023/05/26 00:47:16;;;;;;;19.83;5.85;;;17.40;86.00;;;;;;5034343;28;20117;-69
2023/05/26 00:49:42;;;;;;;22.98;5.60;;;17.40;85.60;;;;;;5034481;28;20049;-69
2023/05/26 00:52:08;;;;;;;20.25;5.38;;;17.40;85.60;;;;;;5033561;28;20478;-68
2023/05/26 00:54:35;;;;;;;20.10;5.55;;;17.40;86.70;;;;;;5033709;28;20033;-69
2023/05/26 00:57:00;;;;;;;19.45;5.05;;;17.30;86.50;;;;;;5034256;28;20419;-69
2023/05/26 00:59:26;;;;;;;19.42;5.38;;;17.30;86.10;;;;;;5033874;28;20034;-68
2023/05/26 01:01:52;;;;;;;14.85;4.47;;;17.30;86.30;;;;;;5033453;28;20029;-68
2023/05/26 01:04:18;;;;;;;20.13;5.53;;;17.20;86.20;;;;;;5033822;28;20030;-68
2023/05/26 01:06:46;;;;;;;18.60;5.85;;;17.20;86.20;;;;;;5033782;28;20022;-69
2023/05/26 01:09:13;;;;;;;20.95;5.70;;;17.20;86.50;;;;;;5033107;28;20029;-68
2023/05/26 01:12:01;;;;;;;16.02;5.70;;;17.20;86.00;;;;;;5033843;28;20021;-68
2023/05/26 01:14:33;;;;;;;20.05;5.88;;;17.20;86.70;;;;;;5033848;28;20025;-69
2023/05/26 01:17:12;;;;;;;19.50;5.37;;;17.20;86.60;;;;;;5033913;28;20076;-68
2023/05/26 01:19:47;;;;;;;17.50;4.65;;;17.20;86.50;;;;;;5033797;28;20060;-68
2023/05/26 01:22:22;;;;;;;21.35;6.13;;;17.10;86.60;;;;;;5033724;28;20040;-68
2023/05/26 01:25:15;;;;;;;19.23;4.88;;;17.10;86.50;;;;;;5033527;28;20030;-68
2023/05/26 01:28:09;;;;;;;22.77;6.15;;;17.00;86.80;;;;;;5033601;28;20033;-68
2023/05/26 01:30:35;;;;;;;18.95;5.35;;;17.10;86.60;;;;;;5033364;28;20030;-68
2023/05/26 01:33:01;;;;;;;21.48;5.22;;;17.00;86.40;;;;;;5033655;28;20037;-68
2023/05/26 01:35:27;;;;;;;19.75;5.50;;;17.00;87.20;;;;;;5033462;28;20022;-69
2023/05/26 01:37:54;;;;;;;18.60;5.97;;;17.00;87.10;;;;;;5033299;28;20078;-68
2023/05/26 01:40:21;;;;;;;19.05;5.45;;;17.00;87.10;;;;;;5031958;28;20017;-68
2023/05/26 01:43:05;;;;;;;22.95;5.82;;;17.00;86.70;;;;;;5033430;28;20123;-68
2023/05/26 01:45:50;;;;;;;18.13;5.05;;;17.00;86.10;;;;;;5033479;28;20114;-68
2023/05/26 01:48:17;;;;;;;23.65;5.50;;;16.90;87.10;;;;;;5033437;28;20029;-68
2023/05/26 01:50:50;;;;;;;19.60;5.63;;;16.90;87.00;;;;;;5032978;28;20029;-68
2023/05/26 01:53:19;;;;;;;21.52;5.55;;;16.90;87.10;;;;;;5033041;28;20029;-68
2023/05/26 01:55:46;;;;;;;11.63;4.80;;;16.80;86.80;;;;;;5032776;28;20066;-68
2023/05/26 01:58:12;;;;;;;20.52;5.88;;;16.80;87.50;;;;;;5032974;28;20033;-69
2023/05/26 02:00:46;;;;;;;18.23;6.35;;;16.80;87.20;;;;;;5032991;28;20035;-69
2023/05/26 02:03:12;;;;;;;22.38;6.18;;;16.80;87.30;;;;;;5032675;28;20497;-68
2023/05/26 02:05:38;;;;;;;22.00;5.43;;;16.80;87.40;;;;;;5033058;28;20025;-69
2023/05/26 02:08:03;;;;;;;23.80;6.47;;;16.80;87.10;;;;;;5032970;28;20025;-68
2023/05/26 02:10:29;;;;;;;13.65;5.03;;;16.80;87.50;;;;;;5032859;28;20026;-68
2023/05/26 02:12:55;;;;;;;23.40;5.60;;;16.70;87.60;;;;;;5031638;28;20040;-68
2023/05/26 02:15:21;;;;;;;17.90;5.30;;;16.70;87.00;;;;;;5032932;28;20100;-68
2023/05/26 02:17:47;;;;;;;20.20;5.95;;;16.70;87.50;;;;;;5032601;28;20029;-68
2023/05/26 02:20:14;;;;;;;18.50;4.82;;;16.70;87.40;;;;;;5032745;28;20021;-69
2023/05/26 02:22:40;;;;;;;20.58;5.55;;;16.60;87.50;;;;;;5031441;28;20025;-68
2023/05/26 02:25:06;;;;;;;17.88;5.35;;;16.60;87.60;;;;;;5032810;28;20542;-68
2023/05/26 02:27:32;;;;;;;16.55;4.60;;;16.60;87.80;;;;;;5032396;28;20128;-69
2023/05/26 02:29:58;;;;;;;17.73;5.07;;;16.60;87.80;;;;;;5032730;28;20064;-68
2023/05/26 02:32:23;;;;;;;18.63;5.57;;;16.50;88.10;;;;;;5032391;28;20040;-68
2023/05/26 02:34:49;;;;;;;20.85;6.28;;;16.50;88.10;;;;;;5032846;28;20096;-68
2023/05/26 02:37:17;;;;;;;20.33;6.18;;;16.50;88.00;;;;;;5032638;28;20025;-69
2023/05/26 02:39:43;;;;;;;20.55;5.97;;;16.50;87.80;;;;;;5031403;28;20489;-70
2023/05/26 02:42:08;;;;;;;24.80;6.35;;;16.40;88.10;;;;;;5032583;28;20030;-69
2023/05/26 02:44:34;;;;;;;25.55;6.90;;;16.50;88.10;;;;;;5032653;28;20277;-68
2023/05/26 02:47:00;;;;;;;16.08;5.63;;;16.40;88.20;;;;;;5032406;28;20104;-70
2023/05/26 02:49:25;;;;;;;20.75;6.20;;;16.40;88.60;;;;;;5032489;28;20029;-69
2023/05/26 02:51:51;;;;;;;19.15;6.03;;;16.40;87.90;;;;;;5032438;28;20021;-69
2023/05/26 02:54:16;;;;;;;21.92;6.22;;;16.30;88.70;;;;;;5032681;28;20368;-69
2023/05/26 02:56:42;;;;;;;16.88;4.93;;;16.40;88.70;;;;;;5032275;28;20573;-69
2023/05/26 02:59:07;;;;;;;21.08;6.10;;;16.30;88.30;;;;;;5032692;28;20499;-68
2023/05/26 03:01:33;;;;;;;22.83;6.55;;;16.20;88.80;;;;;;5032460;28;20021;-69
2023/05/26 03:03:58;;;;;;;19.60;5.63;;;16.30;88.60;;;;;;5032477;28;20037;-70
2023/05/26 03:06:24;;;;;;;23.85;6.03;;;16.30;88.40;;;;;;5032519;28;20017;-69
2023/05/26 03:08:50;;;;;;;17.27;5.85;;;16.30;88.50;;;;;;5032060;28;20537;-68
2023/05/26 03:11:15;;;;;;;22.50;6.18;;;16.10;89.00;;;;;;5032477;28;20026;-69
2023/05/26 03:13:41;;;;;;;17.27;5.82;;;16.20;89.00;;;;;;5032243;28;20029;-69
2023/05/26 03:16:07;;;;;;;18.17;5.30;;;16.20;88.80;;;;;;5033197;28;20479;-68
2023/05/26 03:18:32;;;;;;;23.10;6.15;;;16.10;89.10;;;;;;5035872;28;20108;-69
2023/05/26 03:20:58;;;;;;;19.45;5.72;;;16.20;89.00;;;;;;5036083;28;20017;-70
2023/05/26 03:23:24;;;;;;;23.92;5.38;;;16.20;88.90;;;;;;5035660;28;20022;-69
2023/05/26 03:25:50;;;;;;;21.55;6.00;;;16.20;88.90;;;;;;5036056;28;20080;-68
2023/05/26 03:28:16;;;;;;;24.58;6.38;;;16.10;88.90;;;;;;5035367;28;20441;-68
2023/05/26 03:30:41;;;;;;;20.45;6.07;;;16.10;89.00;;;;;;5035564;28;20537;-69
2023/05/26 03:33:07;;;;;;;14.98;5.25;;;16.10;89.00;;;;;;5035397;28;20112;-69
2023/05/26 03:35:35;;;;;;;21.02;5.82;;;16.10;89.20;;;;;;5035495;28;20132;-69
2023/05/26 03:38:01;;;;;;;16.58;5.07;;;16.10;89.30;;;;;;5035539;28;20032;-69
2023/05/26 03:40:26;;;;;;;19.38;5.85;;;16.00;89.20;;;;;;5035484;28;20029;-68
2023/05/26 03:42:52;;;;;;;18.33;5.07;;;16.00;89.30;;;;;;5035613;28;20035;-69
2023/05/26 03:45:17;;;;;;;20.27;5.43;;;16.00;89.20;;;;;;5035191;28;20037;-69
2023/05/26 03:47:43;;;;;;;18.42;6.05;;;16.00;89.30;;;;;;5035489;28;20034;-69
2023/05/26 03:50:09;;;;;;;21.52;6.20;;;16.00;88.80;;;;;;5035428;28;20026;-68
2023/05/26 03:52:35;;;;;;;17.42;5.35;;;15.90;89.40;;;;;;5035282;28;20030;-68
2023/05/26 03:55:01;;;;;;;22.33;5.60;;;16.00;89.50;;;;;;5035074;28;20475;-68
2023/05/26 03:57:26;;;;;;;20.65;5.47;;;15.90;89.50;;;;;;5035395;28;20036;-69
2023/05/26 03:59:52;;;;;;;15.82;5.28;;;15.80;89.90;;;;;;5034876;28;20033;-69
2023/05/26 04:02:19;;;;;;;21.75;6.03;;;15.90;89.60;;;;;;5035339;28;20029;-68
2023/05/26 04:04:45;;;;;;;21.83;5.65;;;15.90;89.50;;;;;;5033715;28;20025;-69
2023/05/26 04:07:10;;;;;;;17.50;5.30;;;15.90;89.90;;;;;;5035024;28;20576;-69
2023/05/26 04:09:36;;;;;;;22.42;5.88;;;16.00;89.00;;;;;;5035131;28;20026;-69
2023/05/26 04:12:02;;;;;;;24.30;6.10;;;15.90;88.50;;;;;;5035040;28;20489;-69
2023/05/26 04:14:27;;;;;;;22.08;5.85;;;15.90;88.10;;;;;;5034560;28;20039;-69
2023/05/26 04:16:53;;;;;;;21.90;5.88;;;15.70;88.70;;;;;;5035007;28;20467;-69
2023/05/26 04:19:18;;;;;;;21.77;5.63;;;15.80;88.00;;;;;;5034616;28;20035;-69
2023/05/26 04:21:44;;;;;;;24.73;6.38;;;15.80;88.50;;;;;;5034373;28;20021;-69
2023/05/26 04:24:10;;;;;;;16.10;5.32;;;15.80;88.20;;;;;;5034738;28;20025;-69
2023/05/26 04:26:37;;;;;;;21.13;5.72;;;15.80;89.10;;;;;;5034668;28;20071;-70
2023/05/26 04:29:03;;;;;;;18.05;4.75;;;15.70;88.60;;;;;;5033256;28;20128;-68
2023/05/26 04:31:31;;;;;;;26.92;5.78;;;15.70;88.60;;;;;;5034712;28;20093;-68
2023/05/26 04:33:58;;;;;;;21.20;5.47;;;15.80;87.90;;;;;;5033520;28;20087;-68
2023/05/26 04:36:24;;;;;;;21.92;5.60;;;15.60;88.40;;;;;;5036331;28;20021;-68
2023/05/26 04:38:51;;;;;;;26.58;6.22;;;15.60;88.30;;;;;;5040791;28;20037;-68
2023/05/26 04:41:17;;;;;;;25.00;5.90;;;15.60;88.50;;;;;;5043019;28;20043;-68
2023/05/26 04:43:43;;;;;;;18.50;5.57;;;15.60;87.60;;;;;;5052057;28;20462;-68
2023/05/26 04:46:10;;;;;;;17.40;5.45;;;15.60;88.60;;;;;;5042964;28;20493;-68
2023/05/26 04:48:36;;;;;;;21.70;5.57;;;15.60;87.90;;;;;;5041907;28;20021;-68
2023/05/26 04:51:02;;;;;;;19.75;5.18;;;15.60;88.50;;;;;;5053267;28;20017;-68
2023/05/26 04:53:28;;;;;;;25.02;5.43;;;15.60;88.40;;;;;;5045202;28;20037;-68
2023/05/26 04:55:53;;;;;;;20.73;5.35;;;15.60;88.30;;;;;;5033728;28;20108;-68
2023/05/26 04:58:19;;;;;;;21.58;5.47;;;15.60;88.40;;;;;;5033749;28;20055;-68
2023/05/26 05:00:44;;;;;;;24.67;6.35;;;15.60;88.40;;;;;;5048402;28;20390;-69
2023/05/26 05:03:10;;;;;;;24.33;5.80;;;15.60;87.80;;;;;;5045575;28;20033;-68
2023/05/26 05:05:36;;;;;;;22.40;5.57;;;15.60;88.10;;;;;;5046243;28;20025;-68
2023/05/26 05:08:01;;;;;;;25.63;5.38;;;15.60;88.00;;;;;;5048948;28;20072;-68
2023/05/26 05:10:27;;;;;;;28.60;6.20;;;15.50;88.70;;;;;;5032512;28;20455;-68
2023/05/26 05:12:53;;;;;;;19.77;5.85;;;15.60;88.70;;;;;;5037644;28;20475;-68
2023/05/26 05:15:19;;;;;;;25.75;6.10;;;15.60;88.70;;;;;;5053274;28;20059;-70
2023/05/26 05:17:46;;;;;;;22.23;5.95;;;15.60;88.10;;;;;;5051145;28;20452;-69
2023/05/26 05:20:12;;;;;;;21.52;6.07;;;15.60;88.00;;;;;;5038962;28;20026;-68
2023/05/26 05:22:38;;;;;;;21.75;5.82;;;15.50;88.80;;;;;;5046022;28;20104;-68
2023/05/26 05:25:03;;;;;;;23.05;5.80;;;15.50;89.10;;;;;;5035997;28;20461;-68
2023/05/26 05:27:29;;;;;;;25.52;5.72;;;15.60;88.40;;;;;;5039402;28;20029;-69
2023/05/26 05:29:55;;;;;;;21.20;5.68;;;15.50;88.80;;;;;;5036292;28;20060;-69
2023/05/26 05:32:20;;;;;;;20.73;6.03;;;15.60;88.00;;;;;;5037734;28;20120;-69
2023/05/26 05:34:46;;;;;;;23.00;5.88;;;15.60;88.20;;;;;;5039659;28;20476;-69
2023/05/26 05:37:12;;;;;;;26.20;6.20;;;15.50;88.60;;;;;;5038877;28;20032;-69
2023/05/26 05:39:38;;;;;;;21.77;6.03;;;15.50;89.00;;;;;;5043491;28;20025;-69
2023/05/26 05:42:03;;;;;;;25.13;6.40;;;15.60;88.30;;;;;;5034221;28;20024;-70
2023/05/26 05:44:29;;;;;;;21.05;5.32;;;15.60;88.10;;;;;;5034867;28;20455;-69
2023/05/26 05:46:55;;;;;;;19.55;5.57;;;15.60;87.80;;;;;;5046327;28;20421;-69
2023/05/26 05:49:20;;;;;;;29.33;6.82;;;15.60;87.60;;;;;;5047444;28;20028;-70
2023/05/26 05:51:46;;;;;;;24.23;6.65;;;15.70;87.40;;;;;;5039670;28;20932;-70
2023/05/26 05:54:12;;;;;;;26.35;6.47;;;15.70;87.00;;;;;;5039846;28;20111;-69
2023/05/26 05:56:37;;;;;;;25.60;6.70;;;15.80;86.90;;;;;;5045004;28;20108;-70
2023/05/26 05:59:03;;;;;;;29.42;6.88;;;15.80;86.90;;;;;;5034773;28;20041;-70
2023/05/26 06:01:28;;;;;;;27.50;5.88;;;15.80;86.80;;;;;;5044924;28;20071;-68
2023/05/26 06:03:54;;;;;;;21.48;6.18;;;15.90;86.20;;;;;;5038032;28;20433;-70
2023/05/26 06:06:19;;;;;;;23.55;5.90;;;16.00;86.00;;;;;;5039573;28;20474;-70
2023/05/26 06:08:45;;;;;;;22.58;6.07;;;16.10;85.30;;;;;;5038642;28;20027;-71
2023/05/26 06:11:10;;;;;;;24.52;6.22;;;16.10;85.60;;;;;;5032655;28;20494;-69
2023/05/26 06:13:36;;;;;;;24.90;6.22;;;16.10;85.50;;;;;;5038603;28;20470;-70
2023/05/26 06:16:01;;;;;;;23.98;6.68;;;16.20;85.10;;;;;;5031643;28;20030;-70
2023/05/26 06:18:27;;;;;;;22.98;6.03;;;16.20;86.30;;;;;;5042774;28;20081;-70
2023/05/26 06:20:52;;;;;;;25.02;5.75;;;16.30;84.90;;;;;;5045383;28;20543;-70
2023/05/26 06:23:18;;;;;;;20.70;5.90;;;16.40;85.70;;;;;;5042177;28;20471;-71
2023/05/26 06:25:44;;;;;;;18.17;5.68;;;16.50;85.30;;;;;;5048010;28;20060;-72
2023/05/26 06:28:09;;;;;;;23.27;6.10;;;16.50;84.30;;;;;;5032212;28;20037;-71
2023/05/26 06:30:35;;;;;;;22.83;6.05;;;16.60;84.40;;;;;;5032952;28;20104;-71
2023/05/26 06:33:00;;;;;;;23.88;6.05;;;16.60;84.20;;;;;;5032284;28;20720;-71
2023/05/26 06:35:26;;;;;;;19.70;5.63;;;16.70;84.00;;;;;;5032769;28;20029;-71
2023/05/26 06:37:51;;;;;;;19.40;5.35;;;16.70;83.90;;;;;;5032514;28;20032;-71
2023/05/26 06:40:17;;;;;;;18.85;5.40;;;16.70;83.40;;;;;;5032361;28;20029;-71
2023/05/26 06:42:42;;;;;;;24.55;6.10;;;16.70;83.20;;;;;;5032671;28;20030;-71
2023/05/26 06:45:08;;;;;;;23.20;6.13;;;16.70;83.30;;;;;;5032689;28;20497;-71
2023/05/26 06:47:34;;;;;;;21.50;5.70;;;16.70;83.70;;;;;;5032535;28;20029;-71
2023/05/26 06:49:59;;;;;;;14.77;5.38;;;16.70;83.80;;;;;;5032473;28;20489;-71
2023/05/26 06:52:25;;;;;;;18.88;6.38;;;16.80;83.10;;;;;;5035617;28;20440;-71
2023/05/26 06:54:51;;;;;;;21.40;5.57;;;16.90;82.50;;;;;;5036118;28;20025;-72
2023/05/26 06:57:17;;;;;;;23.95;6.30;;;16.90;83.00;;;;;;5036160;28;20492;-71
2023/05/26 06:59:43;;;;;;;19.60;6.03;;;16.90;83.00;;;;;;5051833;28;20028;-72
2023/05/26 07:02:09;;;;;;;21.55;6.25;;;17.00;82.40;;;;;;5036205;28;20037;-72
2023/05/26 07:04:35;;;;;;;22.67;5.82;;;17.00;82.70;;;;;;5035292;28;20033;-71
2023/05/26 07:07:00;;;;;;;21.23;6.05;;;17.10;82.60;;;;;;5036097;28;20470;-71
2023/05/26 07:09:26;;;;;;;22.13;6.15;;;17.20;82.60;;;;;;5036059;28;20033;-71
2023/05/26 07:11:51;;;;;;;21.52;6.13;;;17.20;81.90;;;;;;5036047;28;20025;-71
2023/05/26 07:14:17;;;;;;;16.88;5.53;;;17.30;81.80;;;;;;5035999;28;20018;-71
2023/05/26 07:16:42;;;;;;;20.42;5.40;;;17.30;81.60;;;;;;5036069;28;20025;-71
2023/05/26 07:19:08;;;;;;;19.95;5.72;;;17.40;81.40;;;;;;5035844;28;20030;-71
2023/05/26 07:21:33;;;;;;;21.10;6.13;;;17.40;81.20;;;;;;5034715;28;20070;-71
2023/05/26 07:23:59;;;;;;;21.80;5.97;;;17.40;81.40;;;;;;5035785;28;20053;-71
2023/05/26 07:26:25;;;;;;;24.13;6.13;;;17.50;81.00;;;;;;5036296;28;20034;-71
2023/05/26 07:28:51;;;;;;;24.60;6.32;;;17.50;80.70;;;;;;5035614;28;20087;-71
2023/05/26 07:31:18;;;;;;;18.70;5.32;;;17.50;81.00;;;;;;5035718;28;20034;-71
2023/05/26 07:33:43;;;;;;;17.77;5.88;;;17.50;80.90;;;;;;5035607;28;20044;-71
2023/05/26 07:36:09;;;;;;;17.08;5.53;;;17.60;80.70;;;;;;5035708;28;20191;-71
2023/05/26 07:38:34;;;;;;;19.63;5.72;;;17.60;79.90;;;;;;5035289;28;20026;-71
2023/05/26 07:41:00;;;;;;;17.70;5.07;;;17.60;80.20;;;;;;5035794;28;20025;-71
2023/05/26 07:43:26;;;;;;;15.63;5.03;;;17.60;80.30;;;;;;5035445;28;20029;-71
2023/05/26 07:45:51;;;;;;;20.00;5.63;;;17.70;80.40;;;;;;5035507;28;20021;-71
2023/05/26 07:48:17;;;;;;;18.23;5.20;;;17.80;80.00;;;;;;5035364;28;20188;-71
2023/05/26 07:50:43;;;;;;;17.08;5.80;;;17.70;79.80;;;;;;5035341;28;20482;-71
2023/05/26 07:53:08;;;;;;;17.30;5.03;;;17.80;80.10;;;;;;5034821;28;20430;-71
2023/05/26 07:55:34;;;;;;;17.70;5.22;;;17.80;80.10;;;;;;5034770;28;20039;-72
2023/05/26 07:58:00;;;;;;;19.85;5.10;;;17.90;79.40;;;;;;5035231;28;20041;-71
2023/05/26 08:00:26;;;;;;;19.13;5.68;;;17.90;79.50;;;;;;5035187;28;20084;-71
2023/05/26 08:02:52;;;;;;;20.35;6.65;;;18.00;78.70;;;;;;5035270;28;20087;-71
2023/05/26 08:05:17;;;;;;;17.48;5.15;;;18.00;79.60;;;;;;5035134;28;20018;-71
2023/05/26 08:07:43;;;;;;;16.90;5.05;;;18.00;79.50;;;;;;5034989;28;20021;-71
2023/05/26 08:10:09;;;;;;;17.00;4.82;;;18.00;79.00;;;;;;5035003;28;20514;-71
2023/05/26 08:12:35;;;;;;;15.45;5.32;;;18.00;78.10;;;;;;5035022;28;20406;-71
2023/05/26 08:15:11;;;;;;;19.20;5.82;;;18.10;79.00;;;;;;5034875;28;20025;-71
2023/05/26 08:17:36;;;;;;;18.15;5.43;;;18.10;78.20;;;;;;5035030;28;20026;-71
2023/05/26 08:20:02;;;;;;;15.40;4.88;;;18.10;78.90;;;;;;5034694;28;20021;-71
2023/05/26 08:22:28;;;;;;;17.20;5.57;;;18.10;78.60;;;;;;5034558;28;20029;-70
2023/05/26 08:24:53;;;;;;;20.67;5.93;;;18.20;78.50;;;;;;5034665;28;20502;-71
2023/05/26 08:27:19;;;;;;;23.20;6.05;;;18.20;78.30;;;;;;5033149;28;20037;-71
2023/05/26 08:29:45;;;;;;;17.20;5.53;;;18.30;78.20;;;;;;5034695;28;20029;-71
2023/05/26 08:32:10;;;;;;;15.70;5.07;;;18.20;78.60;;;;;;5034834;28;20095;-71
2023/05/26 08:34:36;;;;;;;16.33;5.10;;;18.30;79.10;;;;;;5033217;28;20025;-71
2023/05/26 08:37:01;;;;;;;18.75;5.90;;;18.30;78.50;;;;;;5034354;28;20034;-71
2023/05/26 08:39:27;;;;;;;13.93;4.75;;;18.40;77.60;;;;;;5034280;28;20430;-71
2023/05/26 08:42:00;;;;;;;18.65;5.15;;;18.40;77.00;;;;;;5034361;28;20096;-70
2023/05/26 08:44:26;;;;;;;19.08;5.13;;;18.40;77.30;;;;;;5034263;28;20021;-71
2023/05/26 08:46:55;;;;;;;19.75;5.78;;;18.40;77.90;;;;;;5033828;28;20033;-71
2023/05/26 08:49:22;;;;;;;17.02;5.35;;;18.40;78.00;;;;;;5033883;28;20060;-71
2023/05/26 08:52:09;;;;;;;18.67;5.88;;;18.40;78.50;;;;;;5034209;28;20021;-71
2023/05/26 08:54:34;;;;;;;18.15;5.65;;;18.50;78.40;;;;;;5034359;28;20486;-70
2023/05/26 08:57:03;;;;;;;21.55;5.88;;;18.50;78.30;;;;;;5034185;28;20064;-71
2023/05/26 08:59:30;;;;;;;22.85;5.65;;;18.60;77.90;;;;;;5033895;28;20026;-71
2023/05/26 09:01:56;;;;;;;17.30;5.00;;;18.60;77.70;;;;;;5033979;28;20163;-71
2023/05/26 09:04:22;;;;;;;14.25;5.05;;;18.60;77.80;;;;;;5033785;28;20101;-71
2023/05/26 09:06:48;;;;;;;16.45;5.90;;;18.60;77.60;;;;;;5033919;28;20416;-71
2023/05/26 09:09:16;;;;;;;23.67;7.10;;;18.60;76.10;;;;;;5033889;28;20383;-70
2023/05/26 09:11:42;;;;;;;20.23;6.15;;;18.60;76.50;;;;;;5033792;28;20096;-71
2023/05/26 09:14:11;;;;;;;22.20;5.95;;;18.60;77.40;;;;;;5033428;28;20047;-70
2023/05/26 09:16:38;;;;;;;17.92;5.32;;;18.60;76.50;;;;;;5033561;28;20030;-70
2023/05/26 09:19:03;;;;;;;21.90;5.97;;;18.60;76.50;;;;;;5033591;28;20017;-70
2023/05/26 09:21:30;;;;;;;18.70;5.55;;;18.60;76.50;;;;;;5033513;28;20459;-70
2023/05/26 09:23:59;;;;;;;15.50;5.00;;;18.60;76.40;;;;;;5033053;28;20025;-71
2023/05/26 09:26:33;;;;;;;20.30;5.35;;;18.60;77.00;;;;;;5034490;28;20198;-70
2023/05/26 09:29:00;;;;;;;17.25;5.20;;;18.60;76.80;;;;;;5051670;28;20033;-71
2023/05/26 09:31:40;;;;;;;16.50;5.03;;;18.50;76.50;;;;;;5049940;28;20039;-68
2023/05/26 09:34:07;;;;;;;14.40;4.65;;;18.60;76.50;;;;;;5052713;28;20529;-70
2023/05/26 09:36:35;;;;;;;18.58;5.50;;;18.60;76.70;;;;;;5054666;28;20041;-69
2023/05/26 09:39:05;;;;;;;16.88;5.70;;;18.70;77.30;;;;;;5058098;28;20449;-70
2023/05/26 09:41:39;;;;;;;18.83;5.35;;;18.70;76.30;;;;;;5061546;28;20096;-69
2023/05/26 09:44:16;;;;;;;18.40;5.30;;;18.60;76.60;;;;;;5039243;28;20029;-68
2023/05/26 09:46:44;;;;;;;14.90;4.53;;;18.60;75.90;;;;;;5038996;28;20032;-69
2023/05/26 09:49:14;;;;;;;18.20;5.00;;;18.60;74.70;;;;;;5060666;28;20370;-67
2023/05/26 09:51:47;;;;;;;15.57;4.50;;;18.50;71.60;;;;;;5046194;28;20108;-69
2023/05/26 09:54:13;;;;;;;12.45;4.45;;;18.50;73.30;;;;;;5067806;28;20032;-69
2023/05/26 09:56:56;;;;;;;15.23;5.22;;;18.50;72.10;;;;;;5054602;28;20429;-70
2023/05/26 09:59:31;;;;;;;19.58;5.30;;;18.40;73.20;;;;;;5058388;28;20041;-70
2023/05/26 10:01:57;;;;;;;23.17;5.25;;;18.40;73.30;;;;;;5042942;28;20104;-69
2023/05/26 10:04:24;;;;;;;17.05;4.78;;;18.50;73.30;;;;;;5065158;28;20028;-70
2023/05/26 10:06:52;;;;;;;14.90;4.25;;;18.40;73.00;;;;;;5050567;28;20118;-69
2023/05/26 10:09:21;;;;;;;14.95;4.72;;;18.40;73.60;;;;;;5063112;28;20029;-69
2023/05/26 10:11:49;;;;;;;16.40;4.95;;;18.50;73.80;;;;;;5064152;28;20020;-69
2023/05/26 10:14:15;;;;;;;15.73;4.50;;;18.50;72.80;;;;;;5053694;28;20037;-68
2023/05/26 10:16:42;;;;;;;16.38;4.50;;;18.60;74.40;;;;;;5057958;28;20354;-69
2023/05/26 10:19:08;;;;;;;17.60;5.28;;;18.60;75.20;;;;;;5058307;28;20039;-68
2023/05/26 10:21:38;;;;;;;16.05;4.95;;;18.60;74.20;;;;;;5063193;28;20020;-68
2023/05/26 10:24:20;;;;;;;13.88;5.13;;;18.60;74.80;;;;;;5056040;28;20029;-69
2023/05/26 10:27:07;;;;;;;14.05;4.35;;;18.70;74.20;;;;;;5041116;28;20469;-68
2023/05/26 10:29:45;;;;;;;14.55;4.82;;;18.70;76.10;;;;;;5047272;28;20021;-69
2023/05/26 10:32:41;;;;;;;13.07;4.07;;;18.70;73.60;;;;;;5036393;28;20112;-70
2023/05/26 10:35:27;;;;;;;12.70;4.00;;;18.80;74.90;;;;;;5035728;28;20032;-69
2023/05/26 10:38:17;;;;;;;18.88;5.20;;;18.80;72.90;;;;;;5035056;28;20025;-69
2023/05/26 10:40:45;;;;;;;12.52;4.65;;;18.70;73.60;;;;;;5035461;28;20554;-69
2023/05/26 10:43:25;;;;;;;15.48;5.28;;;18.70;74.50;;;;;;5035866;28;20100;-70
2023/05/26 10:45:54;;;;;;;15.45;4.15;;;18.80;73.50;;;;;;5035392;28;20097;-68
2023/05/26 10:48:20;;;;;;;15.57;4.68;;;18.80;73.10;;;;;;5036058;28;20026;-68
2023/05/26 10:50:55;;;;;;;15.02;4.45;;;18.80;72.60;;;;;;5036613;28;20032;-70
2023/05/26 10:53:22;;;;;;;19.17;4.32;;;18.80;73.00;;;;;;5036063;28;20037;-69
2023/05/26 10:56:05;;;;;;;16.33;4.50;;;18.80;72.90;;;;;;5036427;28;20025;-69
2023/05/26 10:58:32;;;;;;;17.67;4.65;;;18.80;73.70;;;;;;5036067;28;20030;-69
2023/05/26 11:01:02;;;;;;;24.08;5.75;;;18.80;73.40;;;;;;5036062;28;20021;-69
2023/05/26 11:03:38;;;;;;;12.32;4.47;;;18.80;72.30;;;;;;5036223;28;20071;-69
2023/05/26 11:06:04;;;;;;;17.75;5.15;;;18.80;72.90;;;;;;5036271;28;20025;-68
2023/05/26 11:08:44;;;;;;;18.08;4.80;;;18.80;73.20;;;;;;5036013;28;20123;-69
2023/05/26 11:11:11;;;;;;;15.05;4.97;;;18.80;73.90;;;;;;5036073;28;20445;-69
2023/05/26 11:13:46;;;;;;;18.00;5.20;;;18.90;73.30;;;;;;5035959;28;20083;-70
2023/05/26 11:16:23;;;;;;;13.32;4.50;;;18.90;72.40;;;;;;5035744;28;20478;-69
2023/05/26 11:18:51;;;;;;;13.07;4.35;;;18.80;73.10;;;;;;5035239;28;20036;-69
2023/05/26 11:21:28;;;;;;;13.50;3.95;;;18.90;71.40;;;;;;5035849;28;20018;-69
2023/05/26 11:23:56;;;;;;;13.02;4.32;;;18.90;72.50;;;;;;5035926;28;20029;-69
2023/05/26 11:26:22;;;;;;;15.35;4.50;;;18.90;71.40;;;;;;5035932;28;20028;-70
2023/05/26 11:28:48;;;;;;;15.88;4.90;;;18.90;71.10;;;;;;5035219;28;20039;-69
2023/05/26 11:31:18;;;;;;;11.50;3.72;;;18.90;71.30;;;;;;5035779;28;20100;-68
2023/05/26 11:33:45;;;;;;;15.30;4.40;;;18.90;72.10;;;;;;5035685;28;20068;-69
2023/05/26 11:36:16;;;;;;;14.60;4.60;;;18.90;70.60;;;;;;5035500;28;20033;-68
2023/05/26 11:38:47;;;;;;;17.45;4.47;;;18.90;72.50;;;;;;5035641;28;20034;-69
2023/05/26 11:41:15;;;;;;;16.98;5.00;;;18.90;71.90;;;;;;5035320;28;20423;-69
2023/05/26 11:43:44;;;;;;;14.38;4.15;;;18.90;73.20;;;;;;5035272;28;20025;-69
2023/05/26 11:46:13;;;;;;;15.05;4.55;;;19.00;73.20;;;;;;5035502;28;20454;-69
2023/05/26 11:48:40;;;;;;;17.40;4.63;;;19.00;72.00;;;;;;5035160;28;20025;-70
2023/05/26 11:51:10;;;;;;;14.00;4.72;;;19.00;72.90;;;;;;5035230;28;20028;-69
2023/05/26 11:53:37;;;;;;;14.23;4.07;;;19.00;72.90;;;;;;5035155;28;20037;-69
2023/05/26 11:56:14;;;;;;;14.25;4.43;;;19.10;72.50;;;;;;5035275;28;20097;-70
2023/05/26 11:58:47;;;;;;;17.33;4.57;;;19.10;73.20;;;;;;5034876;28;20394;-69
2023/05/26 12:01:13;;;;;;;11.63;3.85;;;19.00;70.40;;;;;;5035381;28;20030;-68
2023/05/26 12:03:49;;;;;;;19.20;4.35;;;19.00;72.20;;;;;;5035127;28;20022;-70
2023/05/26 12:06:20;;;;;;;13.10;3.88;;;19.00;69.80;;;;;;5035034;28;20034;-69
2023/05/26 12:08:45;;;;;;;14.70;4.03;;;19.00;72.20;;;;;;5035012;28;20048;-69
2023/05/26 12:11:22;;;;;;;16.05;4.72;;;19.10;71.00;;;;;;5035038;28;20025;-70
2023/05/26 12:13:55;;;;;;;13.50;3.58;;;19.10;69.60;;;;;;5042581;28;20494;-68
2023/05/26 12:16:27;;;;;;;12.93;4.40;;;19.10;71.60;;;;;;5058701;28;20118;-69
2023/05/26 12:18:59;;;;;;;15.15;4.82;;;19.10;70.20;;;;;;5046711;28;20569;-68
2023/05/26 12:21:25;;;;;;;11.35;3.47;;;19.10;71.80;;;;;;5067347;28;20027;-69
2023/05/26 12:23:53;;;;;;;15.48;4.47;;;19.20;72.60;;;;;;5056724;28;20151;-70
2023/05/26 12:26:27;;;;;;;15.05;4.07;;;19.20;69.10;;;;;;5049983;28;20024;-70
2023/05/26 12:29:08;;;;;;;9.23;3.97;;;19.20;68.70;;;;;;5063740;28;20037;-70
2023/05/26 12:31:36;;;;;;;17.63;4.03;;;19.20;68.40;;;;;;5064688;28;20047;-69
2023/05/26 12:34:02;;;;;;;14.88;4.70;;;19.20;68.30;;;;;;5054491;28;20040;-70
2023/05/26 12:36:27;;;;;;;10.95;3.45;;;19.20;67.90;;;;;;5067704;28;20021;-69
2023/05/26 12:38:53;;;;;;;11.45;4.10;;;19.20;70.70;;;;;;5051743;28;20036;-69